LTAU/ASR METAR and TAF weather

Enter ICAO airport designator
Station Type Date Time Source
LTAU METAR 2020/12/01 21:20 UTC NOAA

LTAU 012120Z 00000KT 7000 SCT040 01/01 Q1018 NOSIG


Station Type Date Time Source
LTAU Decoded METAR 2020/12/01 21:20 UTC NOAA

Kayseri / Erkilet, Turkey (LTAU) 38-47N 035-29E 1054M
Dec 01, 2020 - 04:20 PM EST / 2020.12.01 2120 UTC
Wind: Calm:0
Visibility: 4 mile(s):0
Sky conditions: partly cloudy
Temperature: 33 F (1 C)
Dew Point: 33 F (1 C)
Relative Humidity: 100%
Pressure (altimeter): 30.06 in. Hg (1018 hPa)
ob: LTAU 012120Z 00000KT 7000 SCT040 01/01 Q1018 NOSIG
cycle: 21

Station Type Date Time Source
LTAU TAF 2020/12/01 18:03 UTC NOAA

TAF LTAU 011640Z 0118/0218 VRB02KT 9999 SCT040 BKN100
TEMPO 0118/0121 -RA BKN035 BKN090 PROB30
TEMPO 0122/0202 2500 BR PROB40
TEMPO 0202/0206 1200 BCFG BKN005

Example: see airport list